Terminal Aerodrome Forecast
Issued by NWS

Home | Current Version | Previous Version | Graphics & Text | Print | Product List | Glossary On
Versions: 1 2 3 4 5 6 7 8 9 10 11 12 13 14 15 16 17 18 19 20 21 22 23 24 25
455
FTUS43 KLOT 222336
TAFMDW
TAF
KMDW 222336Z 2300/2406 09004KT P6SM BKN035
     FM230500 VRB02KT 5SM BR BCFG SCT004
      TEMPO 2309/2312 2SM BR MIFG OVC004
     FM231300 VRB03KT P6SM FEW300
     FM231800 07007KT P6SM SCT250
      TEMPO 2318/2320 08011KT=

USA.gov is the U.S. government's official web portal to all federal, state and local government web resources and services.